createdAt,value
2023-05-02T00:01:50.654Z,99.90
2023-05-02T00:06:55.720Z,99.90
2023-05-02T00:11:59.680Z,99.90
2023-05-02T00:17:03.533Z,99.90
2023-05-02T00:22:08.456Z,99.90
2023-05-02T00:27:11.807Z,99.90
2023-05-02T00:32:15.344Z,99.90
2023-05-02T00:37:20.276Z,99.90
2023-05-02T00:42:23.652Z,99.90
2023-05-02T00:47:27.201Z,99.90
2023-05-02T00:52:32.876Z,99.90
2023-05-02T00:57:36.414Z,99.90
2023-05-02T01:02:51.147Z,99.90
2023-05-02T01:08:10.768Z,99.90
2023-05-02T01:13:21.047Z,99.90
2023-05-02T01:18:28.057Z,99.90
2023-05-02T01:23:41.122Z,99.90
2023-05-02T01:28:55.530Z,99.90
2023-05-02T01:34:00.432Z,99.90
2023-05-02T01:39:07.250Z,99.90
2023-05-02T01:44:14.025Z,99.90
2023-05-02T01:49:19.370Z,99.90
2023-05-02T01:54:23.635Z,99.90
2023-05-02T01:59:30.075Z,99.90
2023-05-02T02:04:37.491Z,99.90
2023-05-02T02:09:41.620Z,99.90
2023-05-02T02:14:56.166Z,99.90
2023-05-02T02:20:03.327Z,99.90
2023-05-02T02:25:10.263Z,99.90
2023-05-02T02:30:16.544Z,99.90
2023-05-02T02:35:22.879Z,99.90
2023-05-02T02:40:30.335Z,99.90
2023-05-02T02:45:45.013Z,99.90
2023-05-02T02:51:09.376Z,99.90
2023-05-02T02:56:16.406Z,99.90
2023-05-02T03:01:24.321Z,99.90
2023-05-02T03:06:27.815Z,99.90
2023-05-02T03:11:33.526Z,99.90
2023-05-02T03:16:39.541Z,99.90
2023-05-02T03:21:47.262Z,99.90
2023-05-02T03:26:56.027Z,99.90
2023-05-02T03:32:05.536Z,99.90
2023-05-02T03:37:09.364Z,99.90
2023-05-02T03:42:12.727Z,99.90
2023-05-02T03:47:17.487Z,99.90
2023-05-02T03:52:21.307Z,99.90
2023-05-02T03:57:30.420Z,99.90
2023-05-02T04:02:36.480Z,99.90
2023-05-02T04:07:40.441Z,99.90
2023-05-02T04:12:44.656Z,99.90
2023-05-02T04:17:50.394Z,99.90
2023-05-02T04:22:53.980Z,99.90
2023-05-02T04:27:57.309Z,99.90
2023-05-02T04:33:03.455Z,99.90
2023-05-02T04:38:11.683Z,99.90
2023-05-02T04:43:15.513Z,99.90
2023-05-02T04:48:27.927Z,99.90
2023-05-02T04:53:31.299Z,99.90
2023-05-02T04:58:37.657Z,99.90
2023-05-02T05:03:45.986Z,99.90
2023-05-02T05:08:51.153Z,99.90
2023-05-02T05:13:54.517Z,99.90
2023-05-02T05:19:00.630Z,99.90
2023-05-02T05:24:04.511Z,99.90
2023-05-02T05:29:08.244Z,99.90
2023-05-02T05:34:18.246Z,99.00
2023-05-02T05:39:25.249Z,94.30
2023-05-02T05:44:31.530Z,91.20
2023-05-02T05:49:38.757Z,90.60
2023-05-02T05:54:44.870Z,85.30
2023-05-02T05:59:48.418Z,85.10
2023-05-02T06:04:54.350Z,77.30
2023-05-02T06:10:10.987Z,76.00
2023-05-02T06:15:19.472Z,79.40
2023-05-02T06:20:26.241Z,83.40
2023-05-02T06:25:30.090Z,87.40
2023-05-02T06:30:33.955Z,87.30
2023-05-02T06:35:40.128Z,83.90
2023-05-02T06:40:45.336Z,84.40
2023-05-02T06:45:52.457Z,80.40
2023-05-02T06:50:58.201Z,83.20
2023-05-02T06:56:02.106Z,82.50
2023-05-02T07:01:06.388Z,79.40
2023-05-02T07:06:12.887Z,77.90
2023-05-02T07:11:17.491Z,78.50
2023-05-02T07:16:21.763Z,73.70
2023-05-02T07:21:27.705Z,74.90
2023-05-02T07:26:33.124Z,77.70
2023-05-02T07:31:37.028Z,75.20
2023-05-02T07:36:41.997Z,79.70
2023-05-02T07:41:45.590Z,79.70
2023-05-02T07:46:49.316Z,85.20
2023-05-02T07:51:54.828Z,87.00
2023-05-02T07:57:02.378Z,88.90
2023-05-02T08:02:06.406Z,89.30
2023-05-02T08:07:11.292Z,90.30
2023-05-02T08:12:15.006Z,89.90
2023-05-02T08:17:18.533Z,91.60
2023-05-02T08:22:24.613Z,93.60
2023-05-02T08:27:28.222Z,94.10
2023-05-02T08:32:32.604Z,95.50
2023-05-02T08:37:38.138Z,96.90
2023-05-02T08:42:44.800Z,98.00
2023-05-02T08:47:50.773Z,99.20
2023-05-02T08:52:57.187Z,96.90
2023-05-02T08:58:04.544Z,96.80
2023-05-02T09:03:23.349Z,98.90
2023-05-02T09:08:28.867Z,99.90
2023-05-02T09:13:34.791Z,99.90
2023-05-02T09:18:40.672Z,99.90
2023-05-02T09:23:47.110Z,99.90
2023-05-02T09:28:52.017Z,99.90
2023-05-02T09:33:57.032Z,99.90
2023-05-02T09:39:11.297Z,99.70
2023-05-02T09:44:18.353Z,99.30
2023-05-02T09:49:41.056Z,99.80
2023-05-02T09:54:50.516Z,99.90
2023-05-02T09:59:55.292Z,99.90
2023-05-02T10:05:01.722Z,99.90
2023-05-02T10:10:11.657Z,99.90
2023-05-02T10:15:18.420Z,99.90
2023-05-02T10:20:27.016Z,99.90
2023-05-02T10:25:34.033Z,99.90
2023-05-02T10:30:39.494Z,99.90
2023-05-02T10:35:48.069Z,99.90
2023-05-02T10:40:57.927Z,99.90
2023-05-02T10:46:05.385Z,99.90
2023-05-02T10:51:27.818Z,99.90
2023-05-02T10:56:33.796Z,99.90
2023-05-02T11:01:40.096Z,99.90
2023-05-02T11:07:19.105Z,99.90
2023-05-02T11:12:52.437Z,99.90
2023-05-02T11:18:01.346Z,98.70
2023-05-02T11:23:22.239Z,97.50
2023-05-02T11:28:48.482Z,94.70
2023-05-02T11:33:57.101Z,94.10
2023-05-02T11:39:02.096Z,92.30
2023-05-02T11:44:07.532Z,91.70
2023-05-02T11:49:14.855Z,91.70
2023-05-02T11:54:20.179Z,90.50
2023-05-02T11:59:25.315Z,91.40
2023-05-02T12:04:29.432Z,89.90
2023-05-02T12:09:33.816Z,90.10
2023-05-02T12:14:41.316Z,90.30
2023-05-02T12:19:46.671Z,91.10
2023-05-02T12:24:51.335Z,92.50
2023-05-02T12:29:57.499Z,90.40
2023-05-02T12:35:03.298Z,89.50
2023-05-02T12:40:15.927Z,87.60
2023-05-02T12:45:23.280Z,87.60
2023-05-02T12:50:36.854Z,86.40
2023-05-02T12:55:41.669Z,80.80
2023-05-02T13:00:47.883Z,81.20
2023-05-02T13:05:54.263Z,79.30
2023-05-02T13:10:57.815Z,80.60
2023-05-02T13:16:02.775Z,79.40
2023-05-02T13:21:07.613Z,78.80
2023-05-02T13:26:11.627Z,77.80
2023-05-02T13:31:17.687Z,75.90
2023-05-02T13:36:21.829Z,79.10
2023-05-02T13:41:26.101Z,78.40
2023-05-02T13:46:36.549Z,80.00
2023-05-02T13:51:41.022Z,78.60
2023-05-02T13:56:45.485Z,80.50
2023-05-02T14:01:50.977Z,81.50
2023-05-02T14:06:55.964Z,82.50
2023-05-02T14:11:59.904Z,82.60
2023-05-02T14:17:05.591Z,83.50
2023-05-02T14:22:09.334Z,83.40
2023-05-02T14:27:18.196Z,84.80
2023-05-02T14:32:24.092Z,83.50
2023-05-02T14:37:28.616Z,83.80
2023-05-02T14:42:32.519Z,84.30
2023-05-02T14:47:38.944Z,84.70
2023-05-02T14:52:42.807Z,85.10
2023-05-02T14:57:47.316Z,83.30
2023-05-02T15:02:53.305Z,81.40
2023-05-02T15:07:57.291Z,79.80
2023-05-02T15:13:01.752Z,79.50
2023-05-02T15:18:07.780Z,78.30
2023-05-02T15:23:11.988Z,80.70
2023-05-02T15:28:15.578Z,78.30
2023-05-02T15:33:20.972Z,81.40
2023-05-02T15:38:25.076Z,79.50
2023-05-02T15:43:28.693Z,82.50
2023-05-02T15:48:34.860Z,81.30
2023-05-02T15:53:42.353Z,80.40
2023-05-02T15:58:46.309Z,80.40
2023-05-02T16:03:51.910Z,75.70
2023-05-02T16:08:56.019Z,79.60
2023-05-02T16:14:00.367Z,76.20
2023-05-02T16:19:12.508Z,73.20
2023-05-02T16:24:16.384Z,71.80
2023-05-02T16:29:20.211Z,68.00
2023-05-02T16:34:26.355Z,68.80
2023-05-02T16:39:30.154Z,73.00
2023-05-02T16:44:34.267Z,74.90
2023-05-02T16:49:39.446Z,76.60
2023-05-02T16:54:43.883Z,76.90
2023-05-02T16:59:50.162Z,77.90
2023-05-02T17:04:55.954Z,79.90
2023-05-02T17:09:59.806Z,79.20
2023-05-02T17:15:05.824Z,76.10
2023-05-02T17:20:12.853Z,76.40
2023-05-02T17:25:17.679Z,73.40
2023-05-02T17:30:21.611Z,74.60
2023-05-02T17:35:26.752Z,76.20
2023-05-02T17:40:30.318Z,76.80
2023-05-02T17:45:34.322Z,78.00
2023-05-02T17:50:40.253Z,78.80
2023-05-02T17:55:44.145Z,77.10
2023-05-02T18:00:47.955Z,79.20
2023-05-02T18:05:52.990Z,81.10
2023-05-02T18:10:56.988Z,81.40
2023-05-02T18:16:01.575Z,82.00
2023-05-02T18:21:06.958Z,85.80
2023-05-02T18:26:14.095Z,85.60
2023-05-02T18:31:18.146Z,86.00
2023-05-02T18:36:27.494Z,84.50
2023-05-02T18:41:31.363Z,87.10
2023-05-02T18:46:34.768Z,85.40
2023-05-02T18:51:39.796Z,86.60
2023-05-02T18:56:44.435Z,90.20
2023-05-02T19:01:48.657Z,88.60
2023-05-02T19:06:54.124Z,86.70
2023-05-02T19:11:57.937Z,87.00
2023-05-02T19:17:01.787Z,89.70
2023-05-02T19:22:07.960Z,87.60
2023-05-02T19:27:11.628Z,90.90
2023-05-02T19:32:15.982Z,89.80
2023-05-02T19:37:22.066Z,88.30
2023-05-02T19:42:26.800Z,90.00
2023-05-02T19:47:32.509Z,89.10
2023-05-02T19:52:41.377Z,89.40
2023-05-02T19:57:45.598Z,89.30
2023-05-02T20:02:51.221Z,88.50
2023-05-02T20:07:56.720Z,88.80
2023-05-02T20:13:00.737Z,90.30
2023-05-02T20:18:04.873Z,90.20
2023-05-02T20:23:10.721Z,90.60
2023-05-02T20:28:14.537Z,91.60
2023-05-02T20:33:18.850Z,91.40
2023-05-02T20:38:24.635Z,91.60
2023-05-02T20:43:29.291Z,91.50
2023-05-02T20:48:33.275Z,92.00
2023-05-02T20:53:40.030Z,91.90
2023-05-02T20:58:43.982Z,92.30
2023-05-02T21:03:49.346Z,92.70
2023-05-02T21:08:56.639Z,92.20
2023-05-02T21:14:00.862Z,92.70
2023-05-02T21:19:04.654Z,92.20
2023-05-02T21:24:09.851Z,92.20
2023-05-02T21:29:15.034Z,93.00
2023-05-02T21:34:19.242Z,93.40
2023-05-02T21:39:26.172Z,93.20
2023-05-02T21:44:30.578Z,92.90
2023-05-02T21:49:34.386Z,92.60
2023-05-02T21:54:40.492Z,93.70
2023-05-02T21:59:44.284Z,93.00
2023-05-02T22:04:48.399Z,92.70
2023-05-02T22:09:53.644Z,92.60
2023-05-02T22:14:57.054Z,93.80
2023-05-02T22:20:02.326Z,92.90
2023-05-02T22:25:09.835Z,93.70
2023-05-02T22:30:14.103Z,93.60
2023-05-02T22:35:21.470Z,93.80
2023-05-02T22:40:29.709Z,92.70
2023-05-02T22:45:34.353Z,93.20
2023-05-02T22:50:38.730Z,93.00
2023-05-02T22:55:44.091Z,93.20
2023-05-02T23:00:48.245Z,92.60
2023-05-02T23:05:52.106Z,92.90
2023-05-02T23:10:57.412Z,93.50
2023-05-02T23:16:01.395Z,94.60
2023-05-02T23:21:05.915Z,94.00
2023-05-02T23:26:13.115Z,93.70
2023-05-02T23:31:17.816Z,93.60
2023-05-02T23:36:22.091Z,93.30
2023-05-02T23:41:28.305Z,93.90
2023-05-02T23:46:32.335Z,93.50
2023-05-02T23:51:37.728Z,93.20
2023-05-02T23:56:43.073Z,93.10
